Time;durP1;ratioP1;P1;durP2;ratioP2;P2;SDS_P1;SDS_P2;PMS_P1;PMS_P2;Temp;Humidity;BMP_temperature;BMP_pressure;BME280_temperature;BME280_humidity;BME280_pressure;Samples;Min_cycle;Max_cycle;Signal;HPM_P1;HPM_P2
2023/10/08 00:02:21;;;;;;;6.85;4.55;;;;;;;;;;5117729;28;20189;-90
2023/10/08 00:04:50;;;;;;;3.33;3.03;;;;;;;;;;5119231;28;20204;-89
2023/10/08 00:07:21;;;;;;;3.97;2.60;;;;;;;;;;5114142;28;20267;-89
2023/10/08 00:09:52;;;;;;;5.20;4.40;;;;;;;;;;5094589;28;20231;-89
2023/10/08 00:12:20;;;;;;;5.00;3.65;;;;;;;;;;5094132;28;20735;-89
2023/10/08 00:14:53;;;;;;;3.95;3.50;;;;;;;;;;5093227;28;20212;-90
2023/10/08 00:17:21;;;;;;;3.92;3.33;;;;;;;;;;5093514;28;20203;-90
2023/10/08 00:19:52;;;;;;;4.00;3.17;;;;;;;;;;5093128;28;20224;-89
2023/10/08 00:22:22;;;;;;;6.18;3.88;;;;;;;;;;5093609;28;20204;-90
2023/10/08 00:24:57;;;;;;;5.30;4.22;;;;;;;;;;5093883;28;20558;-91
2023/10/08 00:27:25;;;;;;;3.70;3.38;;;;;;;;;;5089642;28;20221;-90
2023/10/08 00:29:53;;;;;;;9.25;3.75;;;;;;;;;;5093478;28;20216;-90
2023/10/08 00:32:21;;;;;;;4.65;3.72;;;;;;;;;;5093026;28;20584;-90
2023/10/08 00:34:49;;;;;;;5.57;3.30;;;;;;;;;;5093611;28;20212;-90
2023/10/08 00:37:16;;;;;;;6.57;3.45;;;;;;;;;;5093729;28;20208;-90
2023/10/08 00:39:45;;;;;;;7.18;3.63;;;;;;;;;;5093556;28;20251;-90
2023/10/08 00:42:14;;;;;;;8.38;4.10;;;;;;;;;;5102874;28;20275;-89
2023/10/08 00:44:51;;;;;;;5.72;2.97;;;;;;;;;;5095375;28;20211;-90
2023/10/08 00:47:21;;;;;;;5.68;3.22;;;;;;;;;;5093601;28;20192;-90
2023/10/08 00:49:54;;;;;;;8.10;4.07;;;;;;;;;;5093537;28;20266;-90
2023/10/08 00:52:29;;;;;;;6.32;4.07;;;;;;;;;;5092985;28;20231;-90
2023/10/08 00:57:42;;;;;;;4.60;2.88;;;;;;;;;;5087058;28;20215;-90
2023/10/08 01:00:21;;;;;;;4.95;3.40;;;;;;;;;;5103311;28;20227;-89
2023/10/08 01:02:55;;;;;;;5.22;4.60;;;;;;;;;;5093224;28;20293;-89
2023/10/08 01:05:36;;;;;;;8.52;4.35;;;;;;;;;;5092992;28;20192;-90
2023/10/08 01:08:12;;;;;;;5.22;4.47;;;;;;;;;;5092497;28;20226;-90
2023/10/08 01:10:43;;;;;;;4.88;3.63;;;;;;;;;;5092505;28;20713;-90
2023/10/08 01:13:16;;;;;;;8.10;4.07;;;;;;;;;;5092960;28;20230;-90
2023/10/08 01:15:45;;;;;;;5.47;3.53;;;;;;;;;;5093330;28;20232;-91
2023/10/08 01:18:17;;;;;;;7.15;4.20;;;;;;;;;;5092800;28;20220;-90
2023/10/08 01:20:52;;;;;;;7.85;4.25;;;;;;;;;;5094767;28;20216;-90
2023/10/08 01:23:22;;;;;;;12.35;6.07;;;;;;;;;;5097334;28;20222;-90
2023/10/08 01:25:52;;;;;;;6.88;4.35;;;;;;;;;;5094067;28;20641;-89
2023/10/08 01:28:25;;;;;;;5.22;4.53;;;;;;;;;;5095954;28;20768;-89
2023/10/08 01:30:55;;;;;;;10.68;5.20;;;;;;;;;;5096903;28;20216;-89
2023/10/08 01:33:27;;;;;;;5.15;4.57;;;;;;;;;;5096637;28;20291;-90
2023/10/08 01:36:01;;;;;;;8.45;5.30;;;;;;;;;;5096845;28;20266;-90
2023/10/08 01:38:32;;;;;;;10.30;5.40;;;;;;;;;;5096335;28;20242;-90
2023/10/08 01:41:03;;;;;;;8.45;4.68;;;;;;;;;;5096309;28;20224;-90
2023/10/08 01:43:31;;;;;;;7.80;5.05;;;;;;;;;;5096893;28;20200;-90
2023/10/08 01:45:59;;;;;;;7.57;5.53;;;;;;;;;;5096240;28;20192;-90
2023/10/08 01:48:31;;;;;;;8.23;4.63;;;;;;;;;;5096867;28;20303;-90
2023/10/08 01:51:03;;;;;;;8.77;4.95;;;;;;;;;;5096165;28;20483;-89
2023/10/08 01:53:32;;;;;;;7.28;4.70;;;;;;;;;;5096820;28;20287;-90
2023/10/08 01:56:01;;;;;;;8.80;4.40;;;;;;;;;;5102000;28;20670;-90
2023/10/08 01:58:28;;;;;;;8.65;5.57;;;;;;;;;;5087859;28;20207;-90
2023/10/08 02:00:59;;;;;;;9.07;5.18;;;;;;;;;;5095630;28;20306;-90
2023/10/08 02:03:27;;;;;;;10.18;5.32;;;;;;;;;;5095966;28;20239;-90
2023/10/08 02:05:58;;;;;;;10.52;5.07;;;;;;;;;;5095809;28;20209;-89
2023/10/08 02:08:27;;;;;;;8.60;5.57;;;;;;;;;;5095604;28;20216;-90
2023/10/08 02:10:56;;;;;;;10.10;5.63;;;;;;;;;;5095527;28;20225;-89
2023/10/08 02:13:24;;;;;;;7.57;5.88;;;;;;;;;;5095712;28;20677;-90
2023/10/08 02:15:52;;;;;;;5.80;3.65;;;;;;;;;;5095619;28;20227;-90
2023/10/08 02:18:23;;;;;;;9.20;5.20;;;;;;;;;;5095590;28;20203;-90
2023/10/08 02:20:50;;;;;;;8.18;6.35;;;;;;;;;;5094878;28;20251;-90
2023/10/08 02:23:18;;;;;;;10.93;5.75;;;;;;;;;;5096477;28;20223;-90
2023/10/08 02:25:46;;;;;;;6.05;4.75;;;;;;;;;;5094442;28;20200;-89
2023/10/08 02:28:17;;;;;;;6.90;4.93;;;;;;;;;;5086268;28;20207;-89
2023/10/08 02:30:44;;;;;;;9.65;4.63;;;;;;;;;;5095896;28;20222;-89
2023/10/08 02:33:15;;;;;;;9.20;5.50;;;;;;;;;;5096040;28;20196;-89
2023/10/08 02:35:43;;;;;;;9.77;4.60;;;;;;;;;;5096404;28;20214;-90
2023/10/08 02:38:12;;;;;;;17.83;7.32;;;;;;;;;;5106239;28;20224;-90
2023/10/08 02:40:44;;;;;;;6.55;4.75;;;;;;;;;;5095684;28;20220;-90
2023/10/08 02:43:14;;;;;;;14.50;6.85;;;;;;;;;;5095725;28;20242;-90
2023/10/08 02:45:44;;;;;;;12.48;6.68;;;;;;;;;;5095279;28;20729;-89
2023/10/08 02:48:12;;;;;;;8.18;5.28;;;;;;;;;;5095322;28;20253;-89
2023/10/08 02:50:40;;;;;;;7.40;5.70;;;;;;;;;;5095475;28;20315;-90
2023/10/08 02:53:10;;;;;;;6.78;5.28;;;;;;;;;;5095965;28;20207;-90
2023/10/08 02:55:43;;;;;;;12.43;6.18;;;;;;;;;;5094973;28;20680;-90
2023/10/08 02:58:14;;;;;;;9.18;6.20;;;;;;;;;;5093707;28;20200;-90
2023/10/08 03:00:46;;;;;;;8.15;6.47;;;;;;;;;;5095346;28;20212;-90
2023/10/08 03:03:16;;;;;;;7.50;6.40;;;;;;;;;;5095418;28;20204;-89
2023/10/08 03:05:46;;;;;;;8.25;6.10;;;;;;;;;;5095537;28;20196;-89
2023/10/08 03:08:19;;;;;;;7.97;5.63;;;;;;;;;;5095024;28;20204;-89
2023/10/08 03:10:48;;;;;;;11.65;6.57;;;;;;;;;;5095361;28;20232;-89
2023/10/08 03:13:16;;;;;;;5.78;4.10;;;;;;;;;;5095356;28;20227;-90
2023/10/08 03:15:58;;;;;;;13.15;6.65;;;;;;;;;;5095218;28;20200;-90
2023/10/08 03:18:35;;;;;;;9.55;5.20;;;;;;;;;;5095123;28;20204;-89
2023/10/08 03:21:04;;;;;;;8.18;5.28;;;;;;;;;;5094240;28;20754;-90
2023/10/08 03:23:34;;;;;;;5.30;4.85;;;;;;;;;;5095048;28;20201;-90
2023/10/08 03:26:10;;;;;;;8.57;6.10;;;;;;;;;;5090634;28;20204;-90
2023/10/08 03:28:41;;;;;;;5.85;4.30;;;;;;;;;;5089317;28;20212;-89
2023/10/08 03:31:16;;;;;;;9.85;7.05;;;;;;;;;;5074257;28;20631;-90
2023/10/08 03:33:49;;;;;;;8.50;5.60;;;;;;;;;;5074899;28;20201;-90
2023/10/08 03:36:22;;;;;;;9.18;5.20;;;;;;;;;;5073969;28;20683;-90
2023/10/08 03:38:52;;;;;;;8.02;6.30;;;;;;;;;;5065173;28;20248;-89
2023/10/08 03:41:27;;;;;;;9.77;5.18;;;;;;;;;;5062113;28;20316;-89
2023/10/08 03:44:01;;;;;;;16.25;7.70;;;;;;;;;;5062057;28;20515;-90
2023/10/08 03:46:30;;;;;;;9.70;6.22;;;;;;;;;;5062715;28;20212;-90
2023/10/08 03:49:04;;;;;;;6.82;5.50;;;;;;;;;;5062816;28;20686;-89
2023/10/08 03:51:39;;;;;;;5.75;4.53;;;;;;;;;;5062003;28;20201;-88
2023/10/08 03:54:20;;;;;;;6.82;5.13;;;;;;;;;;5061083;28;20204;-89
2023/10/08 03:56:51;;;;;;;9.30;5.75;;;;;;;;;;5062392;28;20204;-89
2023/10/08 03:59:30;;;;;;;5.80;4.72;;;;;;;;;;5063168;28;20225;-88
2023/10/08 04:02:09;;;;;;;7.20;4.80;;;;;;;;;;5061117;28;20586;-89
2023/10/08 04:04:50;;;;;;;7.13;5.65;;;;;;;;;;5061605;28;20200;-88
2023/10/08 04:07:39;;;;;;;6.57;5.95;;;;;;;;;;5063070;28;20205;-90
2023/10/08 04:13:01;;;;;;;11.43;6.68;;;;;;;;;;5060499;28;20204;-89
2023/10/08 04:15:29;;;;;;;8.98;6.68;;;;;;;;;;5061260;28;20332;-89
2023/10/08 04:18:02;;;;;;;9.57;7.35;;;;;;;;;;5060527;28;20295;-90
2023/10/08 04:20:38;;;;;;;16.30;7.97;;;;;;;;;;5061499;28;20319;-89
2023/10/08 04:23:13;;;;;;;11.73;6.70;;;;;;;;;;5072461;28;20414;-89
2023/10/08 04:25:42;;;;;;;11.80;7.22;;;;;;;;;;5074206;28;20245;-90
2023/10/08 04:28:14;;;;;;;6.30;5.70;;;;;;;;;;5080385;28;20212;-91
2023/10/08 04:30:43;;;;;;;3.97;3.20;;;;;;;;;;5081518;28;20304;-89
2023/10/08 04:33:12;;;;;;;2.00;1.90;;;;;;;;;;5091496;28;20189;-89
2023/10/08 04:35:47;;;;;;;2.63;1.52;;;;;;;;;;5089126;28;20196;-90
2023/10/08 04:38:17;;;;;;;1.55;1.20;;;;;;;;;;5060695;28;20546;-90
2023/10/08 04:40:49;;;;;;;1.08;1.08;;;;;;;;;;5061631;28;20701;-90
2023/10/08 04:43:23;;;;;;;0.82;0.82;;;;;;;;;;5062229;28;20201;-90
2023/10/08 04:45:50;;;;;;;0.75;0.75;;;;;;;;;;5061131;28;20201;-90
2023/10/08 04:48:20;;;;;;;0.50;0.50;;;;;;;;;;5061623;28;20196;-89
2023/10/08 04:50:57;;;;;;;0.60;0.60;;;;;;;;;;5062121;28;20343;-89
2023/10/08 04:53:31;;;;;;;0.50;0.50;;;;;;;;;;5061601;28;20208;-90
2023/10/08 04:56:05;;;;;;;0.43;0.43;;;;;;;;;;5061158;28;20209;-90
2023/10/08 04:58:37;;;;;;;0.30;0.30;;;;;;;;;;5060581;28;20201;-90
2023/10/08 05:01:18;;;;;;;0.30;0.30;;;;;;;;;;5060717;28;20229;-89
2023/10/08 05:07:00;;;;;;;0.30;0.30;;;;;;;;;;5060678;28;20338;-89
2023/10/08 05:09:45;;;;;;;0.30;0.30;;;;;;;;;;5060853;28;20235;-90
2023/10/08 05:12:30;;;;;;;0.10;0.10;;;;;;;;;;5061174;28;21463;-89
2023/10/08 05:15:21;;;;;;;0.32;0.32;;;;;;;;;;5061443;28;20204;-89
2023/10/08 05:17:57;;;;;;;0.28;0.28;;;;;;;;;;5061263;28;20200;-89
2023/10/08 05:20:58;;;;;;;0.30;0.30;;;;;;;;;;5061175;28;20308;-89
2023/10/08 05:26:20;;;;;;;0.40;0.40;;;;;;;;;;5060907;28;20586;-89
2023/10/08 05:29:00;;;;;;;0.45;0.45;;;;;;;;;;5061370;28;20659;-89
2023/10/08 05:31:46;;;;;;;1.17;1.00;;;;;;;;;;5060872;28;20225;-90
2023/10/08 05:34:22;;;;;;;0.40;0.40;;;;;;;;;;5061237;28;20200;-89
2023/10/08 05:37:11;;;;;;;0.50;0.50;;;;;;;;;;5061665;28;20651;-89
2023/10/08 05:39:42;;;;;;;0.98;0.77;;;;;;;;;;5069637;28;20729;-90
2023/10/08 05:42:19;;;;;;;0.90;0.70;;;;;;;;;;5073119;28;20205;-89
2023/10/08 05:45:13;;;;;;;0.60;0.60;;;;;;;;;;5087495;28;20287;-90
2023/10/08 05:47:51;;;;;;;0.60;0.60;;;;;;;;;;5092479;28;20200;-89
2023/10/08 05:50:39;;;;;;;0.50;0.50;;;;;;;;;;5093437;28;20216;-89
2023/10/08 05:53:29;;;;;;;0.50;0.50;;;;;;;;;;5093708;28;20579;-89
2023/10/08 05:56:16;;;;;;;0.30;0.30;;;;;;;;;;5090246;28;20687;-89
2023/10/08 05:59:00;;;;;;;0.60;0.60;;;;;;;;;;5086811;28;20204;-89
2023/10/08 06:01:39;;;;;;;0.60;0.60;;;;;;;;;;5093758;28;20208;-89
2023/10/08 06:04:20;;;;;;;0.50;0.50;;;;;;;;;;5093558;28;20204;-90
2023/10/08 06:06:57;;;;;;;0.35;0.35;;;;;;;;;;5095621;28;20227;-90
2023/10/08 06:09:35;;;;;;;0.50;0.50;;;;;;;;;;5098038;28;20266;-89
2023/10/08 06:12:19;;;;;;;0.50;0.50;;;;;;;;;;5097308;28;20310;-90
2023/10/08 06:17:55;;;;;;;0.70;0.70;;;;;;;;;;5098795;28;20278;-90
2023/10/08 06:20:25;;;;;;;0.70;0.70;;;;;;;;;;5098815;28;20216;-89
2023/10/08 06:23:03;;;;;;;0.45;0.45;;;;;;;;;;5103639;28;20192;-89
2023/10/08 06:25:32;;;;;;;0.60;0.60;;;;;;;;;;5100560;28;20200;-89
2023/10/08 06:27:59;;;;;;;0.75;0.75;;;;;;;;;;5105720;28;20234;-89
2023/10/08 06:30:34;;;;;;;0.40;0.40;;;;;;;;;;5077892;28;20253;-90
2023/10/08 06:33:03;;;;;;;0.60;0.60;;;;;;;;;;5077003;28;20590;-90
2023/10/08 06:35:32;;;;;;;0.63;0.50;;;;;;;;;;5076307;28;20216;-90
2023/10/08 06:38:01;;;;;;;0.40;0.40;;;;;;;;;;5076688;28;20255;-89
2023/10/08 06:40:42;;;;;;;0.60;0.60;;;;;;;;;;5076059;28;20236;-89
2023/10/08 06:43:21;;;;;;;0.50;0.50;;;;;;;;;;5075433;28;20689;-89
2023/10/08 06:45:52;;;;;;;0.65;0.65;;;;;;;;;;5076268;28;20201;-90
2023/10/08 06:48:21;;;;;;;0.50;0.50;;;;;;;;;;5077154;28;20682;-91
2023/10/08 06:50:50;;;;;;;0.40;0.40;;;;;;;;;;5075434;28;20235;-90
2023/10/08 06:53:19;;;;;;;0.25;0.25;;;;;;;;;;5076145;28;20280;-89
2023/10/08 06:55:48;;;;;;;0.30;0.30;;;;;;;;;;5075578;28;20727;-90
2023/10/08 06:58:17;;;;;;;0.30;0.30;;;;;;;;;;5095264;28;20685;-90
2023/10/08 07:00:48;;;;;;;0.20;0.20;;;;;;;;;;5100651;28;20220;-91
2023/10/08 07:03:17;;;;;;;0.10;0.10;;;;;;;;;;5095855;28;20204;-89
2023/10/08 07:05:54;;;;;;;0.30;0.30;;;;;;;;;;5095966;28;20211;-90
2023/10/08 07:08:24;;;;;;;0.10;0.10;;;;;;;;;;5095232;28;20269;-90
2023/10/08 07:10:52;;;;;;;0.25;0.25;;;;;;;;;;5095639;28;20224;-90
2023/10/08 07:13:22;;;;;;;0.20;0.20;;;;;;;;;;5095280;28;20631;-90
2023/10/08 07:15:50;;;;;;;0.30;0.30;;;;;;;;;;5095682;28;20200;-89
2023/10/08 07:18:24;;;;;;;0.63;0.63;;;;;;;;;;5094751;28;20279;-91
2023/10/08 07:20:54;;;;;;;0.30;0.30;;;;;;;;;;5094587;28;20232;-90
2023/10/08 07:23:26;;;;;;;0.38;0.17;;;;;;;;;;5095658;28;20202;-90
2023/10/08 07:26:10;;;;;;;0.25;0.25;;;;;;;;;;5094662;28;20231;-90
2023/10/08 07:28:40;;;;;;;0.30;0.30;;;;;;;;;;5082731;28;20200;-90
2023/10/08 07:31:15;;;;;;;1.05;0.40;;;;;;;;;;5078896;28;20228;-89
2023/10/08 07:33:43;;;;;;;1.67;0.50;;;;;;;;;;5074429;28;20289;-90
2023/10/08 07:36:18;;;;;;;0.70;0.70;;;;;;;;;;5077210;28;20719;-90
2023/10/08 07:38:46;;;;;;;0.65;0.65;;;;;;;;;;5076075;28;20242;-89
2023/10/08 07:41:14;;;;;;;0.60;0.45;;;;;;;;;;5074530;28;20316;-90
2023/10/08 07:43:44;;;;;;;3.13;0.80;;;;;;;;;;5074717;28;20225;-89
2023/10/08 07:46:15;;;;;;;1.45;0.38;;;;;;;;;;5074334;28;20197;-90
2023/10/08 07:48:43;;;;;;;1.13;0.60;;;;;;;;;;5073787;28;20205;-90
2023/10/08 07:51:10;;;;;;;1.38;0.70;;;;;;;;;;5073459;28;20220;-89
2023/10/08 07:53:38;;;;;;;1.45;0.80;;;;;;;;;;5074219;28;20642;-89
2023/10/08 07:56:11;;;;;;;2.25;0.70;;;;;;;;;;5075937;28;20204;-89
2023/10/08 07:58:38;;;;;;;0.80;0.70;;;;;;;;;;5094820;28;20200;-89
2023/10/08 08:01:09;;;;;;;2.35;0.70;;;;;;;;;;5096545;28;20315;-90
2023/10/08 08:03:37;;;;;;;0.80;0.75;;;;;;;;;;5101062;28;20230;-90
2023/10/08 08:06:07;;;;;;;0.57;0.57;;;;;;;;;;5094209;28;20192;-89
2023/10/08 08:08:35;;;;;;;0.70;0.65;;;;;;;;;;5094171;28;20235;-90
2023/10/08 08:11:06;;;;;;;0.68;0.60;;;;;;;;;;5094091;28;20224;-90
2023/10/08 08:13:34;;;;;;;0.70;0.70;;;;;;;;;;5094256;28;20220;-92
2023/10/08 08:16:16;;;;;;;0.63;0.63;;;;;;;;;;5094377;28;20284;-90
2023/10/08 08:18:48;;;;;;;1.42;0.80;;;;;;;;;;5094171;28;20204;-90
2023/10/08 08:21:19;;;;;;;0.57;0.57;;;;;;;;;;5094051;28;20226;-90
2023/10/08 08:23:48;;;;;;;2.85;1.10;;;;;;;;;;5101496;28;20269;-89
2023/10/08 08:26:27;;;;;;;1.83;0.95;;;;;;;;;;5094002;28;20203;-89
2023/10/08 08:28:57;;;;;;;0.82;0.57;;;;;;;;;;5093184;28;20208;-90
2023/10/08 08:31:26;;;;;;;1.38;0.77;;;;;;;;;;5094630;28;20197;-90
2023/10/08 08:33:57;;;;;;;1.85;0.90;;;;;;;;;;5094345;28;20221;-90
2023/10/08 08:36:25;;;;;;;0.55;0.55;;;;;;;;;;5094573;28;20553;-90
2023/10/08 08:38:53;;;;;;;0.60;0.60;;;;;;;;;;5094077;28;20287;-89
2023/10/08 08:41:22;;;;;;;0.60;0.57;;;;;;;;;;5094747;28;20204;-89
2023/10/08 08:43:57;;;;;;;0.80;0.70;;;;;;;;;;5095475;28;20192;-89
2023/10/08 08:46:35;;;;;;;1.10;0.73;;;;;;;;;;5099051;28;20227;-89
2023/10/08 08:49:07;;;;;;;2.00;0.70;;;;;;;;;;5095048;28;20206;-90
2023/10/08 08:51:36;;;;;;;0.98;0.98;;;;;;;;;;5095838;28;20379;-90
2023/10/08 08:54:06;;;;;;;0.70;0.70;;;;;;;;;;5093474;28;20618;-89
2023/10/08 08:56:36;;;;;;;0.63;0.63;;;;;;;;;;5093312;28;20196;-89
2023/10/08 08:59:05;;;;;;;1.15;0.93;;;;;;;;;;5093816;28;20207;-90
2023/10/08 09:01:33;;;;;;;1.35;1.25;;;;;;;;;;5093989;28;20196;-89
2023/10/08 09:04:04;;;;;;;0.82;0.80;;;;;;;;;;5108618;28;20191;-88
2023/10/08 09:06:35;;;;;;;0.70;0.70;;;;;;;;;;5117821;28;20180;-88
2023/10/08 09:09:21;;;;;;;0.40;0.40;;;;;;;;;;5117874;28;20192;-87
2023/10/08 09:11:51;;;;;;;2.13;0.80;;;;;;;;;;5118174;28;20196;-87
2023/10/08 09:14:20;;;;;;;0.88;0.60;;;;;;;;;;5118103;28;20196;-87
2023/10/08 09:16:48;;;;;;;1.60;1.10;;;;;;;;;;5118054;28;20188;-88
2023/10/08 09:19:18;;;;;;;0.73;0.68;;;;;;;;;;5117903;28;21591;-88
2023/10/08 09:22:03;;;;;;;0.90;0.85;;;;;;;;;;5112133;28;20234;-89
2023/10/08 09:24:33;;;;;;;2.60;1.13;;;;;;;;;;5101671;28;20757;-89
2023/10/08 09:27:02;;;;;;;1.10;0.85;;;;;;;;;;5100927;28;20673;-89
2023/10/08 09:29:29;;;;;;;0.60;0.52;;;;;;;;;;5092331;28;20216;-90
2023/10/08 09:31:58;;;;;;;1.17;0.70;;;;;;;;;;5089570;28;20254;-90
2023/10/08 09:34:31;;;;;;;0.75;0.75;;;;;;;;;;5093995;28;20291;-89
2023/10/08 09:37:01;;;;;;;0.88;0.88;;;;;;;;;;5094030;28;20303;-89
2023/10/08 09:39:33;;;;;;;2.72;1.00;;;;;;;;;;5093258;28;20234;-90
2023/10/08 09:42:03;;;;;;;0.98;0.98;;;;;;;;;;5096198;28;20273;-90
2023/10/08 09:44:32;;;;;;;1.27;1.00;;;;;;;;;;5097630;28;20292;-90
2023/10/08 09:47:05;;;;;;;0.60;0.60;;;;;;;;;;5097331;28;20200;-89
2023/10/08 09:49:37;;;;;;;0.75;0.68;;;;;;;;;;5096648;28;20220;-90
2023/10/08 09:52:06;;;;;;;0.70;0.70;;;;;;;;;;5097136;28;20260;-90
2023/10/08 09:54:40;;;;;;;0.47;0.47;;;;;;;;;;5096789;28;20315;-90
2023/10/08 09:57:08;;;;;;;0.90;0.88;;;;;;;;;;5086590;28;20208;-90
2023/10/08 09:59:37;;;;;;;1.17;1.05;;;;;;;;;;5089238;28;20220;-89
2023/10/08 10:02:09;;;;;;;0.90;0.88;;;;;;;;;;5097121;28;20575;-90
2023/10/08 10:04:42;;;;;;;1.40;0.95;;;;;;;;;;5097263;28;20204;-90
2023/10/08 10:07:14;;;;;;;1.52;1.10;;;;;;;;;;5097200;28;20254;-90
2023/10/08 10:09:46;;;;;;;2.00;1.02;;;;;;;;;;5096303;28;20308;-91
2023/10/08 10:12:19;;;;;;;1.20;1.10;;;;;;;;;;5097180;28;20678;-90
2023/10/08 10:14:49;;;;;;;0.93;0.93;;;;;;;;;;5096900;28;20236;-89
2023/10/08 10:17:20;;;;;;;1.30;0.98;;;;;;;;;;5097428;28;20200;-89
2023/10/08 10:19:54;;;;;;;0.90;0.90;;;;;;;;;;5096491;28;20224;-89
2023/10/08 10:22:34;;;;;;;0.98;0.65;;;;;;;;;;5096650;28;20220;-90
2023/10/08 10:25:04;;;;;;;0.93;0.65;;;;;;;;;;5097096;28;20200;-89
2023/10/08 10:27:32;;;;;;;1.15;0.75;;;;;;;;;;5088028;28;20567;-88
2023/10/08 10:30:09;;;;;;;0.57;0.57;;;;;;;;;;5096282;28;20702;-89
2023/10/08 10:32:37;;;;;;;1.00;0.73;;;;;;;;;;5096527;28;20637;-89
2023/10/08 10:35:06;;;;;;;0.70;0.70;;;;;;;;;;5096375;28;20201;-89
2023/10/08 10:37:41;;;;;;;0.50;0.50;;;;;;;;;;5096035;28;20227;-88
2023/10/08 10:40:12;;;;;;;0.93;0.63;;;;;;;;;;5102838;28;20712;-88
2023/10/08 10:42:44;;;;;;;1.50;0.70;;;;;;;;;;5096798;28;20295;-89
2023/10/08 10:45:35;;;;;;;0.57;0.43;;;;;;;;;;5104576;28;20733;-88
2023/10/08 10:48:13;;;;;;;0.88;0.55;;;;;;;;;;5103749;28;20200;-88
2023/10/08 10:51:08;;;;;;;0.82;0.82;;;;;;;;;;5103724;28;20227;-89
2023/10/08 10:53:44;;;;;;;1.00;0.80;;;;;;;;;;5109668;28;20231;-89
2023/10/08 10:56:19;;;;;;;0.90;0.90;;;;;;;;;;5095432;28;20207;-89
2023/10/08 10:58:53;;;;;;;1.27;0.65;;;;;;;;;;5105797;28;20204;-89
2023/10/08 11:01:23;;;;;;;0.88;0.85;;;;;;;;;;5097946;28;20212;-89
2023/10/08 11:03:52;;;;;;;1.30;0.90;;;;;;;;;;5096579;28;20257;-89
2023/10/08 11:06:22;;;;;;;1.25;0.90;;;;;;;;;;5098144;28;20226;-89
2023/10/08 11:08:53;;;;;;;0.80;0.75;;;;;;;;;;5110123;28;20212;-88
2023/10/08 11:11:27;;;;;;;1.25;0.90;;;;;;;;;;5097420;28;20216;-89
2023/10/08 11:14:00;;;;;;;1.20;0.90;;;;;;;;;;5101717;28;20204;-89
2023/10/08 11:16:31;;;;;;;1.17;0.98;;;;;;;;;;5106817;28;20192;-90
2023/10/08 11:19:01;;;;;;;1.75;0.73;;;;;;;;;;5107492;28;20207;-90
2023/10/08 11:21:33;;;;;;;0.70;0.70;;;;;;;;;;5096744;28;20636;-91
2023/10/08 11:24:08;;;;;;;2.08;1.10;;;;;;;;;;5096678;28;20204;-90
2023/10/08 11:26:38;;;;;;;1.10;1.00;;;;;;;;;;5094943;28;20203;-89
2023/10/08 11:29:14;;;;;;;0.70;0.70;;;;;;;;;;5095948;28;20200;-89
2023/10/08 11:31:42;;;;;;;0.88;0.88;;;;;;;;;;5095336;28;20228;-89
2023/10/08 11:34:14;;;;;;;1.35;0.98;;;;;;;;;;5096485;28;20254;-90
2023/10/08 11:36:52;;;;;;;2.25;1.25;;;;;;;;;;5095380;28;20196;-91
2023/10/08 11:39:30;;;;;;;0.80;0.80;;;;;;;;;;5094713;28;20216;-91
2023/10/08 11:42:16;;;;;;;1.25;1.15;;;;;;;;;;5095237;28;20227;-90
2023/10/08 11:44:44;;;;;;;0.95;0.90;;;;;;;;;;5094663;28;20212;-90
2023/10/08 11:47:13;;;;;;;1.35;0.80;;;;;;;;;;5094928;28;20216;-91
2023/10/08 11:49:47;;;;;;;1.08;0.98;;;;;;;;;;5094278;28;20285;-91
2023/10/08 11:52:16;;;;;;;1.35;0.82;;;;;;;;;;5094713;28;20188;-91
2023/10/08 11:54:48;;;;;;;0.88;0.88;;;;;;;;;;5094544;28;20229;-90
2023/10/08 11:57:19;;;;;;;1.02;0.93;;;;;;;;;;5093848;28;20215;-90
2023/10/08 11:59:47;;;;;;;1.13;0.90;;;;;;;;;;5093785;28;20581;-90
2023/10/08 12:02:16;;;;;;;0.82;0.82;;;;;;;;;;5094016;28;20196;-91
2023/10/08 12:04:45;;;;;;;0.73;0.73;;;;;;;;;;5093176;28;20623;-90
2023/10/08 12:07:17;;;;;;;1.75;1.05;;;;;;;;;;5094211;28;20290;-90
2023/10/08 12:09:48;;;;;;;0.60;0.60;;;;;;;;;;5094208;28;20225;-90
2023/10/08 12:12:15;;;;;;;2.03;1.00;;;;;;;;;;5093743;28;20200;-90
2023/10/08 12:14:47;;;;;;;1.30;1.08;;;;;;;;;;5093589;28;20230;-91
2023/10/08 12:17:16;;;;;;;0.75;0.75;;;;;;;;;;5093857;28;20204;-90
2023/10/08 12:19:45;;;;;;;0.75;0.75;;;;;;;;;;5093824;28;20220;-89
2023/10/08 12:22:17;;;;;;;0.80;0.80;;;;;;;;;;5093615;28;20650;-90
2023/10/08 12:24:46;;;;;;;1.13;0.98;;;;;;;;;;5093577;28;20204;-90
2023/10/08 12:27:17;;;;;;;0.70;0.70;;;;;;;;;;5093000;28;20196;-91
2023/10/08 12:29:44;;;;;;;4.05;2.10;;;;;;;;;;5093180;28;20227;-90
2023/10/08 12:32:17;;;;;;;1.60;1.13;;;;;;;;;;5093986;28;20196;-90
2023/10/08 12:34:45;;;;;;;1.58;0.85;;;;;;;;;;5093325;28;20665;-91
2023/10/08 12:37:14;;;;;;;1.08;0.77;;;;;;;;;;5093375;28;20204;-90
2023/10/08 12:40:11;;;;;;;1.42;0.85;;;;;;;;;;5093246;28;20255;-90
2023/10/08 12:42:31;;;;;;;0.70;0.70;;;;;;;;;;5093062;28;20283;-90
2023/10/08 12:45:01;;;;;;;1.33;1.10;;;;;;;;;;5093342;28;20207;-90
2023/10/08 12:47:29;;;;;;;0.65;0.65;;;;;;;;;;5093821;28;20200;-90
2023/10/08 12:49:57;;;;;;;1.48;0.90;;;;;;;;;;5093036;28;20222;-90
2023/10/08 12:52:27;;;;;;;0.80;0.70;;;;;;;;;;5093350;28;20192;-91
2023/10/08 12:54:58;;;;;;;0.77;0.73;;;;;;;;;;5093123;28;20220;-90
2023/10/08 12:57:31;;;;;;;1.33;1.08;;;;;;;;;;5090221;28;20219;-90
2023/10/08 13:00:03;;;;;;;0.70;0.70;;;;;;;;;;5092783;28;20224;-90
2023/10/08 13:02:31;;;;;;;1.10;0.77;;;;;;;;;;5093210;28;20208;-90
2023/10/08 13:04:59;;;;;;;1.10;1.00;;;;;;;;;;5093247;28;20196;-89
2023/10/08 13:07:27;;;;;;;1.50;0.80;;;;;;;;;;5092907;28;20677;-90
2023/10/08 13:09:55;;;;;;;2.05;1.25;;;;;;;;;;5092596;28;20213;-89
2023/10/08 13:12:22;;;;;;;1.70;1.10;;;;;;;;;;5093424;28;20207;-90
2023/10/08 13:14:50;;;;;;;0.88;0.80;;;;;;;;;;5093878;28;20656;-89
2023/10/08 13:17:19;;;;;;;0.98;0.75;;;;;;;;;;5099991;28;20234;-90
2023/10/08 13:19:46;;;;;;;2.22;1.38;;;;;;;;;;5099635;28;20600;-90
2023/10/08 13:22:19;;;;;;;1.40;0.93;;;;;;;;;;5099403;28;20303;-90
2023/10/08 13:24:48;;;;;;;1.23;0.95;;;;;;;;;;5099489;28;20208;-90
2023/10/08 13:27:16;;;;;;;1.48;1.05;;;;;;;;;;5101296;28;20216;-89
2023/10/08 13:29:43;;;;;;;1.02;0.90;;;;;;;;;;5120949;28;20207;-89
2023/10/08 13:32:17;;;;;;;1.38;0.75;;;;;;;;;;5124863;28;20191;-89
2023/10/08 13:34:46;;;;;;;2.25;0.90;;;;;;;;;;5124736;28;20233;-90
2023/10/08 13:37:15;;;;;;;1.13;0.82;;;;;;;;;;5104885;28;20629;-90
2023/10/08 13:39:43;;;;;;;0.93;0.90;;;;;;;;;;5099784;28;20349;-91
2023/10/08 13:42:16;;;;;;;1.58;1.35;;;;;;;;;;5099861;28;20283;-90
2023/10/08 13:44:45;;;;;;;1.00;1.00;;;;;;;;;;5100044;28;20203;-90
2023/10/08 13:47:15;;;;;;;1.52;0.85;;;;;;;;;;5099706;28;20490;-89
2023/10/08 13:49:43;;;;;;;2.42;1.00;;;;;;;;;;5099367;28;20215;-89
2023/10/08 13:52:11;;;;;;;1.10;0.90;;;;;;;;;;5099450;28;20200;-90
2023/10/08 13:54:46;;;;;;;1.60;1.10;;;;;;;;;;5099721;28;20226;-90
2023/10/08 13:57:14;;;;;;;0.82;0.80;;;;;;;;;;5096984;28;20203;-89
2023/10/08 13:59:42;;;;;;;0.55;0.55;;;;;;;;;;5099206;28;20582;-90
2023/10/08 14:02:14;;;;;;;1.30;1.20;;;;;;;;;;5099909;28;20233;-90
2023/10/08 14:04:43;;;;;;;1.00;0.90;;;;;;;;;;5100300;28;20180;-90
2023/10/08 14:07:16;;;;;;;1.65;1.13;;;;;;;;;;5099763;28;20211;-90
2023/10/08 14:09:45;;;;;;;2.25;0.93;;;;;;;;;;5099759;28;20255;-90
2023/10/08 14:12:14;;;;;;;1.02;0.90;;;;;;;;;;5099489;28;20247;-90
2023/10/08 14:14:43;;;;;;;2.15;1.13;;;;;;;;;;5099228;28;20253;-90
2023/10/08 14:17:14;;;;;;;0.77;0.77;;;;;;;;;;5100149;28;20556;-90
2023/10/08 14:19:51;;;;;;;2.40;1.20;;;;;;;;;;5100443;28;20251;-90
2023/10/08 14:22:22;;;;;;;1.13;1.05;;;;;;;;;;5099237;28;20202;-90
2023/10/08 14:24:58;;;;;;;1.15;1.02;;;;;;;;;;5100048;28;20290;-90
2023/10/08 14:27:31;;;;;;;1.15;1.15;;;;;;;;;;5096281;28;20200;-90
2023/10/08 14:30:01;;;;;;;0.95;0.85;;;;;;;;;;5096035;28;20224;-90
2023/10/08 14:32:28;;;;;;;0.80;0.80;;;;;;;;;;5096361;28;20197;-91
2023/10/08 14:43:12;;;;;;;1.10;1.00;;;;;;;;;;5095803;28;20203;-91
2023/10/08 14:45:40;;;;;;;1.33;1.10;;;;;;;;;;5095833;28;20210;-90
2023/10/08 14:48:11;;;;;;;1.38;1.15;;;;;;;;;;5096868;28;20661;-90
2023/10/08 14:50:38;;;;;;;1.33;1.10;;;;;;;;;;5096174;28;20298;-90
2023/10/08 14:53:07;;;;;;;1.30;0.98;;;;;;;;;;5096695;28;20204;-90
2023/10/08 14:55:38;;;;;;;0.73;0.73;;;;;;;;;;5096178;28;20224;-91
2023/10/08 14:58:07;;;;;;;1.33;1.10;;;;;;;;;;5096277;28;20299;-91
2023/10/08 15:00:37;;;;;;;1.15;0.95;;;;;;;;;;5084658;28;20221;-90
2023/10/08 15:03:05;;;;;;;1.17;1.08;;;;;;;;;;5078023;28;20215;-89
2023/10/08 15:05:33;;;;;;;1.20;1.10;;;;;;;;;;5079168;28;20209;-89
2023/10/08 15:08:00;;;;;;;1.35;1.25;;;;;;;;;;5078150;28;20268;-90
2023/10/08 15:10:30;;;;;;;1.20;1.10;;;;;;;;;;5078971;28;20225;-91
2023/10/08 15:12:57;;;;;;;1.13;1.02;;;;;;;;;;5079397;28;20629;-88
2023/10/08 15:15:28;;;;;;;1.33;1.23;;;;;;;;;;5078083;28;20231;-89
2023/10/08 15:17:56;;;;;;;1.40;1.30;;;;;;;;;;5078433;28;20181;-89
2023/10/08 15:20:23;;;;;;;1.33;0.88;;;;;;;;;;5078823;28;20213;-89
2023/10/08 15:22:51;;;;;;;1.20;1.10;;;;;;;;;;5077918;28;20268;-89
2023/10/08 15:25:20;;;;;;;1.45;1.33;;;;;;;;;;5079157;28;20203;-88
2023/10/08 15:27:49;;;;;;;1.20;1.20;;;;;;;;;;5093857;28;20208;-89
2023/10/08 15:30:20;;;;;;;1.30;1.20;;;;;;;;;;5098575;28;20216;-90
2023/10/08 15:32:48;;;;;;;1.20;1.10;;;;;;;;;;5098498;28;20653;-89
2023/10/08 15:35:23;;;;;;;1.48;1.38;;;;;;;;;;5096539;28;20204;-90